Time;durP1;ratioP1;P1;durP2;ratioP2;P2;SDS_P1;SDS_P2;PMS_P1;PMS_P2;Temp;Humidity;BMP_temperature;BMP_pressure;BME280_temperature;BME280_humidity;BME280_pressure;Samples;Min_cycle;Max_cycle;Signal;HPM_P1;HPM_P2
2023/12/15 03:10:57;;;;;;;;;;;6.90;99.90;;;;;;2622209;46;20215;-77
2023/12/15 03:13:28;;;;;;;;;;;6.20;99.90;;;;;;2621315;47;19946;-78
2023/12/15 03:16:04;;;;;;;;;;;6.10;99.90;;;;;;2621802;54;19946;-76
2023/12/15 03:18:34;;;;;;;;;;;6.10;99.90;;;;;;2622319;47;20460;-78
2023/12/15 03:21:04;;;;;;;;;;;6.10;99.90;;;;;;2623034;39;20670;-78
2023/12/15 03:23:34;;;;;;;;;;;6.10;99.90;;;;;;2625133;54;19947;-80
2023/12/15 03:26:07;;;;;;;;;;;6.00;99.90;;;;;;2623886;54;19951;-78
2023/12/15 03:28:36;;;;;;;;;;;6.00;99.90;;;;;;2623859;39;20487;-77
2023/12/15 03:31:07;;;;;;;;;;;6.00;99.90;;;;;;2623274;54;19946;-78
2023/12/15 03:33:37;;;;;;;;;;;6.00;99.90;;;;;;2623078;54;20008;-78
2023/12/15 03:36:08;;;;;;;;;;;6.00;99.90;;;;;;2622505;54;19970;-78
2023/12/15 03:38:38;;;;;;;;;;;6.00;99.90;;;;;;2624536;47;19934;-78
2023/12/15 03:41:12;;;;;;;;;;;6.00;99.90;;;;;;2623534;54;19946;-77
2023/12/15 03:43:42;;;;;;;;;;;6.00;99.90;;;;;;2623117;47;19938;-78
2023/12/15 03:46:12;;;;;;;;;;;6.00;99.90;;;;;;2625180;39;20382;-79
2023/12/15 03:48:42;;;;;;;;;;;6.00;99.90;;;;;;2623808;54;19950;-78
2023/12/15 03:51:12;;;;;;;;;;;6.00;99.90;;;;;;2623817;47;20034;-79
2023/12/15 03:53:42;;;;;;;;;;;6.00;99.90;;;;;;2622599;54;19946;-79
2023/12/15 03:56:15;;;;;;;;;;;6.50;99.90;;;;;;2625425;54;19950;-78
2023/12/15 03:58:44;;;;;;;;;;;6.00;99.90;;;;;;2623790;54;19950;-78
2023/12/15 04:01:14;;;;;;;;;;;6.00;99.90;;;;;;2620103;47;20041;-78
2023/12/15 04:03:44;;;;;;;;;;;6.10;99.90;;;;;;2620582;47;19945;-78
2023/12/15 04:06:14;;;;;;;;;;;6.10;99.90;;;;;;2620966;47;20486;-77
2023/12/15 04:08:44;;;;;;;;;;;6.10;99.90;;;;;;2621358;47;19950;-78
2023/12/15 04:11:17;;;;;;;;;;;6.10;99.90;;;;;;2620478;47;19946;-78
2023/12/15 04:13:48;;;;;;;;;;;6.10;99.90;;;;;;2621853;46;19987;-78
2023/12/15 04:16:18;;;;;;;;;;;6.10;99.90;;;;;;2621493;47;19971;-78
2023/12/15 04:18:47;;;;;;;;;;;6.10;99.90;;;;;;2621499;47;19961;-77
2023/12/15 04:21:17;;;;;;;;;;;6.10;99.90;;;;;;2621968;46;19991;-77
2023/12/15 04:23:47;;;;;;;;;;;6.10;99.90;;;;;;2622207;47;19946;-77
2023/12/15 04:26:22;;;;;;;;;;;6.10;99.90;;;;;;2621636;54;19947;-77
2023/12/15 04:28:53;;;;;;;;;;;6.10;99.90;;;;;;2622971;54;19945;-78
2023/12/15 04:31:23;;;;;;;;;;;6.10;99.90;;;;;;2623569;47;19953;-78
2023/12/15 04:33:52;;;;;;;;;;;6.10;99.90;;;;;;2623896;54;19947;-78
2023/12/15 04:36:23;;;;;;;;;;;6.10;99.90;;;;;;2623310;47;19934;-78
2023/12/15 04:38:53;;;;;;;;;;;6.10;99.90;;;;;;2624231;39;20335;-77
2023/12/15 04:41:26;;;;;;;;;;;6.10;99.90;;;;;;2626398;47;19980;-77
2023/12/15 04:43:57;;;;;;;;;;;6.10;99.90;;;;;;2622806;47;19938;-76
2023/12/15 04:46:27;;;;;;;;;;;6.20;99.90;;;;;;2619954;47;20467;-76
2023/12/15 04:48:57;;;;;;;;;;;6.10;99.90;;;;;;2618919;47;19949;-76
2023/12/15 04:51:28;;;;;;;;;;;6.20;99.90;;;;;;2619500;49;19935;-77
2023/12/15 04:53:58;;;;;;;;;;;6.20;99.90;;;;;;2620245;54;19957;-78
2023/12/15 04:56:30;;;;;;;;;;;6.20;99.90;;;;;;2622139;46;19950;-70
2023/12/15 04:59:00;;;;;;;;;;;6.30;99.90;;;;;;2610292;47;19946;-70
2023/12/15 05:01:30;;;;;;;;;;;6.20;99.90;;;;;;2616124;54;20454;-69
2023/12/15 05:03:59;;;;;;;;;;;6.20;99.90;;;;;;2613659;54;19953;-69
2023/12/15 05:06:30;;;;;;;;;;;6.30;99.90;;;;;;2614373;54;19946;-69
2023/12/15 05:08:59;;;;;;;;;;;6.20;99.90;;;;;;2614166;54;20011;-68
2023/12/15 05:11:34;;;;;;;;;;;6.30;99.90;;;;;;2615044;47;19947;-70
2023/12/15 05:14:04;;;;;;;;;;;6.30;99.90;;;;;;2614503;46;19986;-68
2023/12/15 05:16:34;;;;;;;;;;;6.20;99.90;;;;;;2616948;54;19947;-68
2023/12/15 05:19:04;;;;;;;;;;;6.30;99.90;;;;;;2615100;54;20433;-74
2023/12/15 05:21:34;;;;;;;;;;;6.30;99.90;;;;;;2615360;50;20018;-70
2023/12/15 05:24:03;;;;;;;;;;;6.20;99.90;;;;;;2613530;54;20577;-69
2023/12/15 05:26:36;;;;;;;;;;;6.30;99.90;;;;;;2616130;54;20038;-70
2023/12/15 05:29:05;;;;;;;;;;;6.30;99.90;;;;;;2615623;54;20078;-70
2023/12/15 05:31:35;;;;;;;;;;;6.30;99.90;;;;;;2616040;54;20034;-69
2023/12/15 05:34:05;;;;;;;;;;;6.30;99.90;;;;;;2616170;47;19938;-69
2023/12/15 05:36:35;;;;;;;;;;;6.30;99.90;;;;;;2613906;54;19965;-69
2023/12/15 05:39:04;;;;;;;;;;;6.20;99.90;;;;;;2613480;54;20471;-70
2023/12/15 05:41:36;;;;;;;;;;;6.20;99.90;;;;;;2616794;54;19953;-69
2023/12/15 05:44:06;;;;;;;;;;;6.20;99.90;;;;;;2615910;54;20473;-70
2023/12/15 05:46:36;;;;;;;;;;;6.20;99.90;;;;;;2615989;47;19958;-70
2023/12/15 05:49:06;;;;;;;;;;;6.20;99.90;;;;;;2613973;47;19942;-71
2023/12/15 05:51:36;;;;;;;;;;;6.30;99.90;;;;;;2616066;54;19939;-69
2023/12/15 05:54:06;;;;;;;;;;;6.30;99.90;;;;;;2615522;47;20460;-70
2023/12/15 05:56:38;;;;;;;;;;;6.30;99.90;;;;;;2615992;47;19950;-69
2023/12/15 05:59:08;;;;;;;;;;;6.30;99.90;;;;;;2615291;54;19947;-69
2023/12/15 06:01:37;;;;;;;;;;;6.30;99.90;;;;;;2613168;47;19946;-69
2023/12/15 06:04:07;;;;;;;;;;;6.30;99.90;;;;;;2613707;54;19943;-69
2023/12/15 06:06:36;;;;;;;;;;;6.30;99.90;;;;;;2615987;54;19938;-69
2023/12/15 06:09:09;;;;;;;;;;;6.30;99.90;;;;;;2614937;54;19947;-68
2023/12/15 06:11:43;;;;;;;;;;;6.30;99.90;;;;;;2615955;54;19953;-70
2023/12/15 06:14:13;;;;;;;;;;;6.30;99.90;;;;;;2615447;54;19946;-68
2023/12/15 06:16:43;;;;;;;;;;;6.40;99.90;;;;;;2616632;54;19955;-69
2023/12/15 06:19:12;;;;;;;;;;;6.40;99.90;;;;;;2616450;54;19955;-69
2023/12/15 06:21:42;;;;;;;;;;;6.40;99.90;;;;;;2616320;39;20444;-69
2023/12/15 06:24:11;;;;;;;;;;;6.40;99.90;;;;;;2614930;54;20952;-70
2023/12/15 06:26:44;;;;;;;;;;;6.50;99.90;;;;;;2615203;54;19958;-70
2023/12/15 06:29:13;;;;;;;;;;;6.50;99.90;;;;;;2615338;47;20434;-68
2023/12/15 06:31:46;;;;;;;;;;;6.50;99.90;;;;;;2616134;54;19958;-70
2023/12/15 06:34:16;;;;;;;;;;;6.50;99.90;;;;;;2615332;54;20452;-69
2023/12/15 06:36:46;;;;;;;;;;;6.60;99.90;;;;;;2614241;47;20701;-68
2023/12/15 06:39:16;;;;;;;;;;;6.50;99.90;;;;;;2616668;47;19951;-69
2023/12/15 06:41:48;;;;;;;;;;;6.50;99.90;;;;;;2617963;54;19938;-70
2023/12/15 06:44:17;;;;;;;;;;;6.50;99.90;;;;;;2616844;54;19942;-70
2023/12/15 06:46:47;;;;;;;;;;;6.50;99.90;;;;;;2616629;47;19946;-70
2023/12/15 06:49:17;;;;;;;;;;;6.50;99.90;;;;;;2615952;39;20385;-70
2023/12/15 06:51:48;;;;;;;;;;;6.50;99.90;;;;;;2615770;54;20503;-69
2023/12/15 06:54:17;;;;;;;;;;;6.50;99.90;;;;;;2618472;54;20900;-71
2023/12/15 06:56:50;;;;;;;;;;;6.50;99.90;;;;;;2617837;54;19939;-69
2023/12/15 06:59:19;;;;;;;;;;;6.50;99.90;;;;;;2618666;47;19938;-70
2023/12/15 07:01:49;;;;;;;;;;;6.50;99.90;;;;;;2618145;54;19958;-71
2023/12/15 07:04:18;;;;;;;;;;;6.40;99.90;;;;;;2615727;54;19943;-69
2023/12/15 07:06:48;;;;;;;;;;;6.50;99.90;;;;;;2615975;54;19950;-70
2023/12/15 07:09:18;;;;;;;;;;;6.40;99.90;;;;;;2614738;54;19951;-70
2023/12/15 07:11:51;;;;;;;;;;;6.40;99.90;;;;;;2615560;47;19954;-62
2023/12/15 07:14:20;;;;;;;;;;;6.40;99.90;;;;;;2615900;54;19951;-62
2023/12/15 07:16:50;;;;;;;;;;;6.50;99.90;;;;;;2614415;54;19938;-61
2023/12/15 07:19:20;;;;;;;;;;;6.50;99.90;;;;;;2615296;54;19954;-61
2023/12/15 07:21:49;;;;;;;;;;;6.50;99.90;;;;;;2614929;54;20067;-62
2023/12/15 07:24:19;;;;;;;;;;;6.50;99.90;;;;;;2614115;46;19938;-63
2023/12/15 07:26:51;;;;;;;;;;;6.50;99.90;;;;;;2615054;54;20438;-62
2023/12/15 07:29:22;;;;;;;;;;;6.50;99.90;;;;;;2598424;54;19947;-61
2023/12/15 07:31:52;;;;;;;;;;;6.40;99.90;;;;;;2596024;54;19947;-71
2023/12/15 07:34:21;;;;;;;;;;;6.40;99.90;;;;;;2597400;54;19973;-70
2023/12/15 07:36:51;;;;;;;;;;;5.20;99.90;;;;;;2598442;54;20001;-71
2023/12/15 07:39:23;;;;;;;;;;;6.40;99.90;;;;;;2596746;54;21654;-72
2023/12/15 07:41:55;;;;;;;;;;;6.40;99.90;;;;;;2598758;47;20083;-73
2023/12/15 07:44:25;;;;;;;;;;;6.40;99.90;;;;;;2595739;39;20400;-70
2023/12/15 07:46:55;;;;;;;;;;;7.10;99.90;;;;;;2597270;39;20408;-71
2023/12/15 07:49:26;;;;;;;;;;;6.50;99.90;;;;;;2595709;47;19972;-69
2023/12/15 07:51:56;;;;;;;;;;;6.40;99.90;;;;;;2596946;54;19950;-69
2023/12/15 07:54:26;;;;;;;;;;;6.40;99.90;;;;;;2596133;54;19950;-69
2023/12/15 07:56:58;;;;;;;;;;;6.40;99.90;;;;;;2596538;54;19955;-69
2023/12/15 07:59:27;;;;;;;;;;;6.40;99.90;;;;;;2598163;39;20146;-67
2023/12/15 08:01:59;;;;;;;;;;;6.50;99.90;;;;;;2598163;54;19973;-69
2023/12/15 08:04:29;;;;;;;;;;;6.50;99.90;;;;;;2597467;54;20045;-69
2023/12/15 08:07:00;;;;;;;;;;;6.50;99.90;;;;;;2601599;54;19954;-69
2023/12/15 08:09:30;;;;;;;;;;;6.50;99.90;;;;;;2607122;54;19973;-70
2023/12/15 08:12:02;;;;;;;;;;;6.50;99.90;;;;;;2615811;54;19941;-70
2023/12/15 08:14:32;;;;;;;;;;;6.50;99.90;;;;;;2617306;54;19943;-70
2023/12/15 08:17:02;;;;;;;;;;;6.60;99.90;;;;;;2615151;54;19970;-70
2023/12/15 08:19:31;;;;;;;;;;;6.70;99.90;;;;;;2616156;47;19954;-69
2023/12/15 08:22:01;;;;;;;;;;;6.70;99.90;;;;;;2618364;47;19947;-69
2023/12/15 08:24:31;;;;;;;;;;;6.70;99.90;;;;;;2616335;39;20037;-69
2023/12/15 08:27:03;;;;;;;;;;;6.70;99.90;;;;;;2616944;47;19950;-70
2023/12/15 08:29:33;;;;;;;;;;;6.80;99.90;;;;;;2617229;46;19946;-70
2023/12/15 08:32:02;;;;;;;;;;;6.80;99.90;;;;;;2617677;47;20050;-70
2023/12/15 08:34:32;;;;;;;;;;;6.80;99.90;;;;;;2616905;54;19953;-69
2023/12/15 08:37:02;;;;;;;;;;;6.90;99.90;;;;;;2615399;54;19993;-70
2023/12/15 08:39:32;;;;;;;;;;;6.90;99.90;;;;;;2613333;54;19954;-69
2023/12/15 08:42:04;;;;;;;;;;;6.90;99.90;;;;;;2615170;48;20450;-70
2023/12/15 08:44:34;;;;;;;;;;;6.90;99.90;;;;;;2618271;49;19953;-69
2023/12/15 08:47:04;;;;;;;;;;;7.00;99.90;;;;;;2617476;39;20376;-70
2023/12/15 08:49:34;;;;;;;;;;;7.00;99.90;;;;;;2616181;54;20604;-70
2023/12/15 08:52:04;;;;;;;;;;;6.90;99.90;;;;;;2616331;54;19942;-70
2023/12/15 08:54:34;;;;;;;;;;;7.00;99.90;;;;;;2616535;47;19954;-70
2023/12/15 08:57:06;;;;;;;;;;;6.90;99.90;;;;;;2614685;54;19938;-70
2023/12/15 08:59:36;;;;;;;;;;;6.90;99.90;;;;;;2616614;31;20548;-69
2023/12/15 09:02:06;;;;;;;;;;;6.90;99.90;;;;;;2614835;54;20709;-70
2023/12/15 09:04:36;;;;;;;;;;;7.00;99.90;;;;;;2615978;54;20034;-71
2023/12/15 09:07:16;;;;;;;;;;;7.10;99.90;;;;;;2616757;31;20456;-70
2023/12/15 09:09:46;;;;;;;;;;;7.00;99.90;;;;;;2613163;54;19951;-71
2023/12/15 09:12:18;;;;;;;;;;;7.00;99.90;;;;;;2613695;54;19946;-71
2023/12/15 09:14:48;;;;;;;;;;;7.10;99.90;;;;;;2617068;47;19951;-70
2023/12/15 09:17:17;;;;;;;;;;;7.10;99.90;;;;;;2619250;47;19951;-70
2023/12/15 09:19:47;;;;;;;;;;;7.10;99.90;;;;;;2620044;54;19950;-70
2023/12/15 09:22:17;;;;;;;;;;;7.00;99.90;;;;;;2617065;54;19945;-71
2023/12/15 09:24:47;;;;;;;;;;;7.10;99.90;;;;;;2616138;52;19951;-71
2023/12/15 09:27:19;;;;;;;;;;;7.80;99.90;;;;;;2618880;54;20491;-71
2023/12/15 09:29:49;;;;;;;;;;;7.00;99.90;;;;;;2615734;54;19985;-71
2023/12/15 09:32:19;;;;;;;;;;;7.10;99.90;;;;;;2616749;54;19977;-71
2023/12/15 09:34:49;;;;;;;;;;;7.10;99.90;;;;;;2617101;54;20592;-69
2023/12/15 09:37:18;;;;;;;;;;;7.10;99.90;;;;;;2617510;48;19938;-70
2023/12/15 09:39:48;;;;;;;;;;;7.10;99.90;;;;;;2616199;54;19945;-69
2023/12/15 09:42:23;;;;;;;;;;;7.20;99.90;;;;;;2616036;54;19954;-70
2023/12/15 09:44:53;;;;;;;;;;;7.20;99.90;;;;;;2615934;39;20398;-70
2023/12/15 09:47:37;;;;;;;;;;;7.30;99.90;;;;;;2616154;47;19951;-70
2023/12/15 09:50:10;;;;;;;;;;;7.30;99.90;;;;;;2616293;47;20033;-71
2023/12/15 09:52:41;;;;;;;;;;;7.40;99.90;;;;;;2615913;54;19951;-70
2023/12/15 09:55:11;;;;;;;;;;;7.40;99.90;;;;;;2615632;54;19951;-74
2023/12/15 09:57:43;;;;;;;;;;;7.40;99.90;;;;;;2617180;47;20581;-74
2023/12/15 10:00:13;;;;;;;;;;;7.50;99.90;;;;;;2617232;47;19954;-71
2023/12/15 10:02:43;;;;;;;;;;;7.50;99.90;;;;;;2616594;39;20364;-70
2023/12/15 10:05:15;;;;;;;;;;;7.40;99.90;;;;;;2615586;39;20361;-70
2023/12/15 10:07:45;;;;;;;;;;;7.30;99.90;;;;;;2614881;54;19954;-71
2023/12/15 10:10:15;;;;;;;;;;;7.50;99.90;;;;;;2613203;54;19954;-70
2023/12/15 10:12:48;;;;;;;;;;;7.50;99.90;;;;;;2615105;54;19946;-70
2023/12/15 10:15:18;;;;;;;;;;;7.60;99.90;;;;;;2616992;46;19966;-69
2023/12/15 10:17:47;;;;;;;;;;;7.60;99.90;;;;;;2616459;47;19946;-69
2023/12/15 10:20:19;;;;;;;;;;;7.60;99.90;;;;;;2615269;54;19970;-71
2023/12/15 10:22:49;;;;;;;;;;;7.60;99.90;;;;;;2616298;47;20031;-70
2023/12/15 10:25:19;;;;;;;;;;;7.60;99.90;;;;;;2614810;54;20086;-70
2023/12/15 10:27:52;;;;;;;;;;;7.60;99.90;;;;;;2615264;47;20457;-69
2023/12/15 10:30:22;;;;;;;;;;;7.60;99.90;;;;;;2614533;39;20365;-71
2023/12/15 10:32:53;;;;;;;;;;;7.60;99.90;;;;;;2614814;54;19953;-69
2023/12/15 10:35:23;;;;;;;;;;;7.60;99.90;;;;;;2615725;47;20438;-72
2023/12/15 10:37:54;;;;;;;;;;;7.60;99.90;;;;;;2617000;54;19954;-71
2023/12/15 10:40:23;;;;;;;;;;;7.60;99.90;;;;;;2615129;54;19959;-70
2023/12/15 10:42:56;;;;;;;;;;;7.70;99.90;;;;;;2615240;54;19939;-69
2023/12/15 10:45:28;;;;;;;;;;;7.70;99.90;;;;;;2616229;39;20253;-70
2023/12/15 10:47:59;;;;;;;;;;;7.70;99.90;;;;;;2614861;54;19953;-71
2023/12/15 10:50:30;;;;;;;;;;;7.80;99.90;;;;;;2615408;47;20433;-72
2023/12/15 10:53:00;;;;;;;;;;;7.80;99.90;;;;;;2617277;47;19954;-71
2023/12/15 10:55:31;;;;;;;;;;;7.90;99.90;;;;;;2615658;54;19934;-70
2023/12/15 10:58:06;;;;;;;;;;;7.90;99.90;;;;;;2616185;54;19947;-71
2023/12/15 11:00:36;;;;;;;;;;;7.90;99.90;;;;;;2616436;54;19966;-70
2023/12/15 11:03:09;;;;;;;;;;;8.00;99.90;;;;;;2617451;54;19973;-71
2023/12/15 11:05:40;;;;;;;;;;;7.90;99.90;;;;;;2615689;39;20404;-72
2023/12/15 11:08:10;;;;;;;;;;;7.90;99.90;;;;;;2614633;46;19994;-71
2023/12/15 11:10:40;;;;;;;;;;;7.90;99.90;;;;;;2589922;54;19957;-72
2023/12/15 11:13:25;;;;;;;;;;;8.00;99.90;;;;;;2609494;54;19946;-71
2023/12/15 11:15:57;;;;;;;;;;;8.00;99.90;;;;;;2616362;54;19946;-70
2023/12/15 11:18:27;;;;;;;;;;;8.00;99.90;;;;;;2615410;50;19946;-70
2023/12/15 11:20:58;;;;;;;;;;;8.00;99.90;;;;;;2616867;39;20522;-70
2023/12/15 11:23:30;;;;;;;;;;;8.00;99.90;;;;;;2614866;54;20449;-71
2023/12/15 11:26:01;;;;;;;;;;;8.10;99.90;;;;;;2616800;54;19934;-69
2023/12/15 11:28:30;;;;;;;;;;;8.10;99.90;;;;;;2616080;46;19951;-70
2023/12/15 11:31:03;;;;;;;;;;;8.20;99.90;;;;;;2615765;54;19958;-69
2023/12/15 11:33:45;;;;;;;;;;;8.30;99.90;;;;;;2616376;54;19945;-69
2023/12/15 11:36:16;;;;;;;;;;;8.30;99.90;;;;;;2615592;54;19958;-69
2023/12/15 11:38:48;;;;;;;;;;;8.30;99.90;;;;;;2615486;54;20050;-70
2023/12/15 11:41:20;;;;;;;;;;;8.40;99.90;;;;;;2614245;54;20065;-69
2023/12/15 11:43:50;;;;;;;;;;;9.10;99.90;;;;;;2615840;54;19938;-69
2023/12/15 11:46:25;;;;;;;;;;;9.00;99.90;;;;;;2616986;54;20061;-68
2023/12/15 11:48:54;;;;;;;;;;;8.40;99.90;;;;;;2615412;54;19967;-69
2023/12/15 11:51:25;;;;;;;;;;;8.40;99.90;;;;;;2616932;47;19970;-69
2023/12/15 11:53:55;;;;;;;;;;;8.50;99.90;;;;;;2615742;47;19954;-70
2023/12/15 11:56:26;;;;;;;;;;;8.50;99.90;;;;;;2615403;54;20426;-70
2023/12/15 11:58:56;;;;;;;;;;;8.50;99.90;;;;;;2617058;54;20434;-71
2023/12/15 12:01:35;;;;;;;;;;;8.50;99.90;;;;;;2617198;51;19943;-75
2023/12/15 12:04:05;;;;;;;;;;;8.50;99.90;;;;;;2616648;47;19941;-70
2023/12/15 12:06:36;;;;;;;;;;;8.60;99.90;;;;;;2617445;39;20461;-69
2023/12/15 12:09:09;;;;;;;;;;;8.50;99.90;;;;;;2615857;39;20434;-70
2023/12/15 12:11:39;;;;;;;;;;;8.50;99.90;;;;;;2613221;54;19951;-70
2023/12/15 12:14:12;;;;;;;;;;;8.50;99.90;;;;;;2614551;54;20037;-70
2023/12/15 12:16:49;;;;;;;;;;;8.50;99.90;;;;;;2615144;47;19934;-69
2023/12/15 12:19:21;;;;;;;;;;;8.50;99.90;;;;;;2614866;47;19999;-69
2023/12/15 12:21:53;;;;;;;;;;;8.50;99.90;;;;;;2615122;54;19947;-69
2023/12/15 12:24:23;;;;;;;;;;;8.30;99.90;;;;;;2615153;54;19951;-70
2023/12/15 12:26:52;;;;;;;;;;;8.50;99.90;;;;;;2616590;39;20306;-69
2023/12/15 12:29:22;;;;;;;;;;;8.60;99.90;;;;;;2616540;54;19969;-70
2023/12/15 12:31:54;;;;;;;;;;;8.70;99.90;;;;;;2617143;54;19973;-71
2023/12/15 12:34:24;;;;;;;;;;;8.70;99.90;;;;;;2617287;51;19942;-72
2023/12/15 12:36:54;;;;;;;;;;;8.70;99.90;;;;;;2618698;54;19939;-71
2023/12/15 12:39:24;;;;;;;;;;;8.70;99.90;;;;;;2617728;54;19939;-70
2023/12/15 12:41:53;;;;;;;;;;;8.80;99.90;;;;;;2618328;54;19947;-70
2023/12/15 12:44:23;;;;;;;;;;;8.80;99.90;;;;;;2617134;47;19946;-69
2023/12/15 12:46:55;;;;;;;;;;;8.90;99.90;;;;;;2616757;54;20485;-70
2023/12/15 12:49:25;;;;;;;;;;;8.90;99.90;;;;;;2614396;54;19952;-70
2023/12/15 12:51:56;;;;;;;;;;;8.90;99.90;;;;;;2615341;54;19946;-71
2023/12/15 12:54:25;;;;;;;;;;;8.90;99.90;;;;;;2615132;47;20551;-70
2023/12/15 12:56:55;;;;;;;;;;;8.90;99.90;;;;;;2616305;54;20615;-71
2023/12/15 12:59:29;;;;;;;;;;;8.90;99.90;;;;;;2616674;47;19950;-71
2023/12/15 13:02:02;;;;;;;;;;;8.90;99.90;;;;;;2616687;54;19962;-70
2023/12/15 13:04:46;;;;;;;;;;;8.90;99.90;;;;;;2616696;54;19953;-70
2023/12/15 13:07:16;;;;;;;;;;;9.00;99.90;;;;;;2617741;54;20037;-72
2023/12/15 13:09:45;;;;;;;;;;;9.00;99.90;;;;;;2614424;54;19939;-72
2023/12/15 13:12:17;;;;;;;;;;;9.00;99.90;;;;;;2615981;47;19942;-72
2023/12/15 13:14:48;;;;;;;;;;;9.00;99.90;;;;;;2613515;54;20066;-70
2023/12/15 13:17:20;;;;;;;;;;;9.00;99.90;;;;;;2614765;47;20026;-70
2023/12/15 13:19:50;;;;;;;;;;;9.00;99.90;;;;;;2616264;39;20345;-71
2023/12/15 13:22:26;;;;;;;;;;;9.00;99.90;;;;;;2615397;54;19947;-70
2023/12/15 13:25:13;;;;;;;;;;;9.00;99.90;;;;;;2615494;47;19950;-70
2023/12/15 13:27:43;;;;;;;;;;;9.00;99.90;;;;;;2613937;47;19961;-70
2023/12/15 13:30:14;;;;;;;;;;;9.00;99.90;;;;;;2612947;54;19939;-70
2023/12/15 13:32:47;;;;;;;;;;;8.90;99.90;;;;;;2613539;54;19958;-70
2023/12/15 13:35:18;;;;;;;;;;;8.90;99.90;;;;;;2617072;47;19981;-70
2023/12/15 13:37:48;;;;;;;;;;;8.90;99.90;;;;;;2617415;54;20495;-70
2023/12/15 13:40:19;;;;;;;;;;;8.90;99.90;;;;;;2616462;52;19938;-72
2023/12/15 13:42:49;;;;;;;;;;;8.90;99.90;;;;;;2616614;47;19946;-71
2023/12/15 13:45:21;;;;;;;;;;;8.90;99.90;;;;;;2617528;39;20458;-69
2023/12/15 13:47:53;;;;;;;;;;;8.90;99.90;;;;;;2615818;54;20068;-70
2023/12/15 13:50:26;;;;;;;;;;;9.00;99.90;;;;;;2616857;47;19957;-70
2023/12/15 13:52:56;;;;;;;;;;;9.00;99.90;;;;;;2613833;54;19942;-71
2023/12/15 13:55:28;;;;;;;;;;;9.00;99.90;;;;;;2613792;54;20034;-69
2023/12/15 13:57:58;;;;;;;;;;;9.10;99.90;;;;;;2616384;51;19934;-69
2023/12/15 14:00:27;;;;;;;;;;;9.10;99.90;;;;;;2610945;54;19957;-72
2023/12/15 14:02:59;;;;;;;;;;;9.10;99.90;;;;;;2614866;54;19949;-70
2023/12/15 14:05:29;;;;;;;;;;;9.10;99.90;;;;;;2615704;54;19943;-70
2023/12/15 14:07:59;;;;;;;;;;;9.10;99.90;;;;;;2617769;47;19946;-73
2023/12/15 14:10:39;;;;;;;;;;;9.10;99.90;;;;;;2617467;54;19947;-72
2023/12/15 14:13:09;;;;;;;;;;;9.10;99.90;;;;;;2617858;54;19950;-73
2023/12/15 14:15:39;;;;;;;;;;;9.00;99.90;;;;;;2617036;54;19945;-72
2023/12/15 14:18:11;;;;;;;;;;;9.10;99.90;;;;;;2616549;54;19935;-72
2023/12/15 14:20:41;;;;;;;;;;;9.10;99.90;;;;;;2617530;47;19939;-72
2023/12/15 14:23:12;;;;;;;;;;;9.10;99.90;;;;;;2617949;54;19935;-73
2023/12/15 14:25:43;;;;;;;;;;;9.10;99.90;;;;;;2617746;47;20030;-72
2023/12/15 14:28:13;;;;;;;;;;;9.10;99.90;;;;;;2617897;54;19949;-73
2023/12/15 14:30:42;;;;;;;;;;;9.20;99.90;;;;;;2616520;47;19951;-72
2023/12/15 14:33:15;;;;;;;;;;;9.10;99.90;;;;;;2618651;54;20022;-74
2023/12/15 14:35:44;;;;;;;;;;;9.10;99.90;;;;;;2613460;54;19997;-70
2023/12/15 14:38:14;;;;;;;;;;;9.10;99.90;;;;;;2614921;47;19950;-68
2023/12/15 14:40:44;;;;;;;;;;;9.20;99.90;;;;;;2615694;54;19957;-69
2023/12/15 14:43:14;;;;;;;;;;;9.20;99.90;;;;;;2617463;54;19951;-68
2023/12/15 14:45:45;;;;;;;;;;;9.20;99.90;;;;;;2615723;54;19946;-69
2023/12/15 14:48:18;;;;;;;;;;;9.20;99.90;;;;;;2616090;54;19946;-69
2023/12/15 14:50:50;;;;;;;;;;;9.10;99.90;;;;;;2615390;54;19954;-71
2023/12/15 14:53:20;;;;;;;;;;;9.30;99.90;;;;;;2614843;54;19942;-71
2023/12/15 14:55:49;;;;;;;;;;;9.10;99.90;;;;;;2616744;39;20373;-71
2023/12/15 14:58:19;;;;;;;;;;;9.10;99.90;;;;;;2617007;54;20457;-70
2023/12/15 15:00:49;;;;;;;;;;;9.10;99.90;;;;;;2612236;54;19953;-69
2023/12/15 15:03:21;;;;;;;;;;;9.10;99.90;;;;;;2615775;54;19957;-70
2023/12/15 15:05:51;;;;;;;;;;;9.10;99.90;;;;;;2616117;54;19974;-69
2023/12/15 15:08:21;;;;;;;;;;;9.00;99.90;;;;;;2615941;46;20028;-70
2023/12/15 15:10:51;;;;;;;;;;;9.00;99.90;;;;;;2613405;48;20050;-71
2023/12/15 15:13:20;;;;;;;;;;;8.90;99.90;;;;;;2615943;54;19938;-69
2023/12/15 15:15:52;;;;;;;;;;;8.90;99.90;;;;;;2615148;47;19943;-73
2023/12/15 15:18:24;;;;;;;;;;;8.90;99.90;;;;;;2616708;54;19958;-72
2023/12/15 15:20:55;;;;;;;;;;;8.90;99.90;;;;;;2616132;54;19943;-71
2023/12/15 15:23:25;;;;;;;;;;;8.90;99.90;;;;;;2617392;54;19969;-72
2023/12/15 15:25:55;;;;;;;;;;;8.90;99.90;;;;;;2616911;47;19958;-70
2023/12/15 15:28:24;;;;;;;;;;;8.90;99.90;;;;;;2617270;54;19946;-71
2023/12/15 15:30:54;;;;;;;;;;;8.90;99.90;;;;;;2615826;47;19947;-71
2023/12/15 15:33:28;;;;;;;;;;;8.90;99.90;;;;;;2616115;54;19966;-72
2023/12/15 15:35:59;;;;;;;;;;;8.90;99.90;;;;;;2618417;39;20394;-72
2023/12/15 15:38:29;;;;;;;;;;;8.90;99.90;;;;;;2617616;47;19946;-72
2023/12/15 15:41:00;;;;;;;;;;;8.90;99.90;;;;;;2618067;46;19977;-71
2023/12/15 15:43:32;;;;;;;;;;;8.80;99.90;;;;;;2617428;46;19966;-71
2023/12/15 15:46:07;;;;;;;;;;;7.70;99.90;;;;;;2618503;54;19947;-71
2023/12/15 15:48:40;;;;;;;;;;;8.80;99.90;;;;;;2615381;54;19965;-70
2023/12/15 15:51:09;;;;;;;;;;;8.70;99.90;;;;;;2617792;54;19939;-70
2023/12/15 15:53:39;;;;;;;;;;;8.70;99.90;;;;;;2616675;47;19958;-72
2023/12/15 15:56:12;;;;;;;;;;;8.70;99.90;;;;;;2615294;39;20019;-71
2023/12/15 15:58:42;;;;;;;;;;;8.70;99.90;;;;;;2616005;48;19957;-70
2023/12/15 16:01:11;;;;;;;;;;;8.60;99.90;;;;;;2615651;54;19946;-70
2023/12/15 16:03:44;;;;;;;;;;;8.60;99.90;;;;;;2611670;54;20535;-69
2023/12/15 16:06:14;;;;;;;;;;;8.00;99.90;;;;;;2617659;46;20446;-71
2023/12/15 16:08:44;;;;;;;;;;;8.60;99.90;;;;;;2615854;54;19947;-71
2023/12/15 16:11:14;;;;;;;;;;;8.50;99.90;;;;;;2616709;54;19957;-71
2023/12/15 16:13:43;;;;;;;;;;;8.50;99.90;;;;;;2614784;47;19961;-71
2023/12/15 16:16:13;;;;;;;;;;;8.50;99.90;;;;;;2615847;54;19957;-70
2023/12/15 16:18:47;;;;;;;;;;;8.40;99.90;;;;;;2614441;46;19947;-70
2023/12/15 16:21:16;;;;;;;;;;;8.40;99.90;;;;;;2615055;54;19953;-74
2023/12/15 16:23:46;;;;;;;;;;;8.40;99.90;;;;;;2614490;47;19939;-72
2023/12/15 16:26:16;;;;;;;;;;;8.30;99.90;;;;;;2613326;53;19950;-71
2023/12/15 16:28:46;;;;;;;;;;;8.30;99.90;;;;;;2611738;54;19950;-71
2023/12/15 16:31:16;;;;;;;;;;;8.20;99.90;;;;;;2612796;47;19939;-71
2023/12/15 16:33:49;;;;;;;;;;;8.20;99.90;;;;;;2615215;39;20268;-74
2023/12/15 16:36:22;;;;;;;;;;;7.10;99.90;;;;;;2616725;54;19938;-73
2023/12/15 16:38:52;;;;;;;;;;;8.10;99.90;;;;;;2616525;47;19947;-72
2023/12/15 16:41:25;;;;;;;;;;;8.30;99.90;;;;;;2617739;47;19947;-71
2023/12/15 16:43:55;;;;;;;;;;;8.10;99.90;;;;;;2616373;47;19989;-72
2023/12/15 16:46:25;;;;;;;;;;;8.10;99.90;;;;;;2615141;50;19962;-71
2023/12/15 16:48:57;;;;;;;;;;;8.10;99.90;;;;;;2616057;54;19955;-72
2023/12/15 16:51:30;;;;;;;;;;;7.60;99.90;;;;;;2616661;47;19987;-71
2023/12/15 16:54:00;;;;;;;;;;;8.00;99.90;;;;;;2615627;54;19946;-71
2023/12/15 16:56:30;;;;;;;;;;;8.00;99.90;;;;;;2616825;47;20026;-71
2023/12/15 16:59:00;;;;;;;;;;;7.90;99.90;;;;;;2615702;47;19946;-72
2023/12/15 17:01:29;;;;;;;;;;;8.00;99.90;;;;;;2615834;47;19968;-71
2023/12/15 17:04:03;;;;;;;;;;;8.00;99.90;;;;;;2612498;54;19997;-72
2023/12/15 17:06:33;;;;;;;;;;;8.00;99.90;;;;;;2613681;54;19938;-71
2023/12/15 17:09:03;;;;;;;;;;;8.00;99.90;;;;;;2612588;47;19957;-72
2023/12/15 17:11:33;;;;;;;;;;;8.00;99.90;;;;;;2616322;31;20444;-71
2023/12/15 17:14:03;;;;;;;;;;;8.00;99.90;;;;;;2614983;47;19966;-72
2023/12/15 17:16:33;;;;;;;;;;;8.00;99.90;;;;;;2616836;54;19963;-72
2023/12/15 17:19:07;;;;;;;;;;;8.00;99.90;;;;;;2615256;54;20465;-71
2023/12/15 17:21:37;;;;;;;;;;;8.00;99.90;;;;;;2615024;54;20505;-70
2023/12/15 17:24:07;;;;;;;;;;;8.10;99.90;;;;;;2614000;54;19959;-71
2023/12/15 17:26:36;;;;;;;;;;;8.10;99.90;;;;;;2612945;54;19938;-70
2023/12/15 17:29:06;;;;;;;;;;;8.10;99.90;;;;;;2616350;54;19946;-71
2023/12/15 17:31:36;;;;;;;;;;;8.20;99.90;;;;;;2615736;54;20466;-71
2023/12/15 17:34:08;;;;;;;;;;;8.50;99.90;;;;;;2617022;46;20001;-71
2023/12/15 17:36:39;;;;;;;;;;;8.10;99.90;;;;;;2617718;53;19939;-70
2023/12/15 17:39:09;;;;;;;;;;;8.10;99.90;;;;;;2617013;47;19954;-72
2023/12/15 17:41:39;;;;;;;;;;;8.10;99.90;;;;;;2615202;47;19947;-70
2023/12/15 17:44:08;;;;;;;;;;;8.10;99.90;;;;;;2612401;54;19946;-70
2023/12/15 17:46:38;;;;;;;;;;;8.90;99.90;;;;;;2614998;54;19961;-70
2023/12/15 17:49:10;;;;;;;;;;;8.10;99.90;;;;;;2612091;54;19947;-69
2023/12/15 17:51:40;;;;;;;;;;;8.00;99.90;;;;;;2612656;54;19953;-70
2023/12/15 17:54:10;;;;;;;;;;;8.10;99.90;;;;;;2614158;54;20094;-70
2023/12/15 17:56:40;;;;;;;;;;;8.10;99.90;;;;;;2614693;47;19947;-70
2023/12/15 17:59:12;;;;;;;;;;;8.00;99.90;;;;;;2616750;47;19973;-70
2023/12/15 18:01:43;;;;;;;;;;;8.00;99.90;;;;;;2613994;54;19974;-71